createdAt,value
2019-03-21T00:01:53.634Z,83.65
2019-03-21T00:04:21.637Z,84.08
2019-03-21T00:06:49.250Z,84.40
2019-03-21T00:09:17.634Z,84.17
2019-03-21T00:12:24.042Z,84.67
2019-03-21T00:15:30.879Z,84.90
2019-03-21T00:18:02.087Z,85.88
2019-03-21T00:20:30.032Z,86.43
2019-03-21T00:22:57.662Z,86.69
2019-03-21T00:25:25.418Z,86.91
2019-03-21T00:27:53.117Z,87.80
2019-03-21T00:30:21.529Z,88.22
2019-03-21T00:32:49.367Z,88.16
2019-03-21T00:35:17.693Z,88.17
2019-03-21T00:37:45.762Z,88.76
2019-03-21T00:40:16.426Z,88.99
2019-03-21T00:42:44.433Z,88.73
2019-03-21T00:45:13.751Z,89.29
2019-03-21T00:47:41.552Z,88.32
2019-03-21T01:01:21.559Z,89.48
2019-03-21T01:03:49.197Z,90.00
2019-03-21T01:06:17.078Z,89.62
2019-03-21T01:08:44.801Z,89.90
2019-03-21T01:11:12.416Z,89.54
2019-03-21T01:13:40.061Z,89.78
2019-03-21T01:16:08.159Z,89.53
2019-03-21T01:18:36.217Z,90.27
2019-03-21T01:21:03.849Z,90.26
2019-03-21T01:23:31.549Z,89.78
2019-03-21T01:26:00.108Z,89.29
2019-03-21T01:28:27.808Z,89.88
2019-03-21T01:30:55.572Z,89.84
2019-03-21T01:33:23.210Z,90.72
2019-03-21T01:35:50.882Z,90.95
2019-03-21T01:38:18.588Z,90.67
2019-03-21T01:40:47.022Z,91.64
2019-03-21T01:43:14.671Z,91.14
2019-03-21T01:45:42.420Z,91.21
2019-03-21T01:48:10.028Z,91.19
2019-03-21T01:50:37.782Z,91.02
2019-03-21T01:53:05.505Z,91.78
2019-03-21T01:55:33.143Z,91.93
2019-03-21T01:58:00.780Z,92.19
2019-03-21T02:00:31.387Z,92.60
2019-03-21T02:02:59.031Z,92.77
2019-03-21T02:05:26.700Z,93.36
2019-03-21T02:07:54.475Z,93.36
2019-03-21T02:11:02.646Z,93.06
2019-03-21T02:13:30.783Z,93.89
2019-03-21T02:15:59.241Z,94.82
2019-03-21T02:18:28.012Z,95.12
2019-03-21T02:20:55.783Z,94.80
2019-03-21T02:23:23.809Z,93.42
2019-03-21T02:25:51.443Z,93.03
2019-03-21T02:28:19.260Z,94.00
2019-03-21T02:30:47.241Z,94.71
2019-03-21T02:33:34.111Z,95.38
2019-03-21T02:36:01.950Z,96.24
2019-03-21T02:38:30.318Z,97.38
2019-03-21T02:40:59.383Z,97.94
2019-03-21T02:43:26.981Z,98.40
2019-03-21T02:45:54.608Z,98.96
2019-03-21T02:48:23.097Z,99.25
2019-03-21T02:50:51.261Z,99.62
2019-03-21T02:53:18.869Z,99.80
2019-03-21T02:55:46.622Z,99.95
2019-03-21T02:58:14.253Z,99.78
2019-03-21T03:00:42.046Z,99.00
2019-03-21T03:03:09.790Z,98.86
2019-03-21T03:05:37.447Z,99.31
2019-03-21T03:08:06.024Z,99.81
2019-03-21T03:10:39.592Z,100.00
2019-03-21T03:13:07.258Z,100.00
2019-03-21T03:15:34.906Z,100.00
2019-03-21T03:18:02.789Z,100.00
2019-03-21T03:20:30.420Z,100.00
2019-03-21T03:22:58.072Z,100.00
2019-03-21T03:25:25.831Z,100.00
2019-03-21T03:27:54.977Z,100.00
2019-03-21T03:30:23.098Z,100.00
2019-03-21T03:33:02.780Z,100.00
2019-03-21T03:35:30.526Z,100.00
2019-03-21T03:37:58.166Z,100.00
2019-03-21T03:40:28.847Z,100.00
2019-03-21T03:42:56.673Z,100.00
2019-03-21T03:45:37.379Z,100.00
2019-03-21T03:47:57.106Z,100.00
2019-03-21T03:50:25.164Z,100.00
2019-03-21T03:52:53.233Z,100.00
2019-03-21T03:55:21.051Z,100.00
2019-03-21T03:57:48.970Z,100.00
2019-03-21T04:00:17.583Z,100.00
2019-03-21T04:02:46.547Z,100.00
2019-03-21T04:05:14.248Z,99.58
2019-03-21T04:07:42.268Z,99.50
2019-03-21T04:10:31.019Z,99.47
2019-03-21T04:12:58.850Z,98.85
2019-03-21T04:15:26.503Z,98.46
2019-03-21T04:17:54.620Z,98.18
2019-03-21T04:20:24.659Z,98.03
2019-03-21T04:22:52.708Z,98.03
2019-03-21T04:25:23.950Z,97.60
2019-03-21T04:27:51.580Z,98.24
2019-03-21T04:30:19.261Z,98.77
2019-03-21T04:32:46.965Z,98.95
2019-03-21T04:35:14.676Z,98.95
2019-03-21T04:37:42.433Z,98.47
2019-03-21T04:40:11.267Z,98.23
2019-03-21T04:42:40.174Z,97.68
2019-03-21T04:45:10.900Z,96.52
2019-03-21T04:47:38.623Z,95.95
2019-03-21T04:50:08.288Z,96.39
2019-03-21T04:52:35.921Z,96.37
2019-03-21T04:55:04.314Z,96.56
2019-03-21T04:57:32.371Z,96.82
2019-03-21T05:00:00.013Z,96.93
2019-03-21T05:02:27.731Z,98.03
2019-03-21T05:04:55.362Z,97.74
2019-03-21T05:07:24.215Z,97.58
2019-03-21T05:10:11.394Z,98.06
2019-03-21T05:12:39.428Z,97.20
2019-03-21T05:15:09.924Z,96.77
2019-03-21T05:17:57.910Z,96.72
2019-03-21T05:20:26.172Z,97.24
2019-03-21T05:22:53.581Z,97.57
2019-03-21T05:25:21.285Z,97.62
2019-03-21T05:27:48.595Z,97.40
2019-03-21T05:30:19.580Z,97.22
2019-03-21T05:32:47.198Z,97.38
2019-03-21T05:35:16.749Z,97.49
2019-03-21T05:37:56.816Z,99.11
2019-03-21T05:40:24.786Z,98.66
2019-03-21T05:42:56.542Z,99.35
2019-03-21T05:45:24.235Z,99.34
2019-03-21T05:47:51.898Z,99.84
2019-03-21T05:50:19.545Z,100.00
2019-03-21T05:52:47.253Z,100.00
2019-03-21T05:55:15.109Z,100.00
2019-03-21T05:57:42.801Z,99.98
2019-03-21T06:00:31.600Z,99.64
2019-03-21T06:03:01.388Z,99.40
2019-03-21T06:05:28.769Z,99.95
2019-03-21T06:08:00.322Z,100.00
2019-03-21T06:10:28.031Z,100.00
2019-03-21T06:12:55.332Z,100.00
2019-03-21T06:15:25.712Z,100.00
2019-03-21T06:18:27.186Z,99.30
2019-03-21T06:21:16.237Z,98.52
2019-03-21T06:24:06.841Z,97.39
2019-03-21T06:27:14.723Z,96.67
2019-03-21T06:29:42.705Z,96.18
2019-03-21T06:32:12.867Z,96.26
2019-03-21T06:34:40.274Z,96.46
2019-03-21T06:37:08.815Z,97.01
2019-03-21T06:39:36.512Z,96.58
2019-03-21T06:42:04.748Z,95.99
2019-03-21T06:44:32.592Z,95.79
2019-03-21T06:47:00.278Z,96.79
2019-03-21T06:49:27.985Z,96.49
2019-03-21T06:51:55.636Z,96.74
2019-03-21T06:54:23.918Z,96.90
2019-03-21T06:56:51.947Z,97.11
2019-03-21T06:59:20.973Z,96.75
2019-03-21T07:01:48.995Z,94.99
2019-03-21T07:04:16.853Z,94.62
2019-03-21T07:06:44.522Z,94.20
2019-03-21T07:09:12.121Z,94.22
2019-03-21T07:11:39.794Z,94.39
2019-03-21T07:14:07.807Z,94.01
2019-03-21T07:16:35.468Z,93.60
2019-03-21T07:19:03.316Z,91.33
2019-03-21T07:21:31.158Z,91.79
2019-03-21T07:23:58.813Z,91.16
2019-03-21T07:26:26.521Z,90.85
2019-03-21T07:28:54.147Z,90.22
2019-03-21T07:31:21.861Z,90.63
2019-03-21T07:33:49.533Z,90.81
2019-03-21T07:36:17.160Z,90.11
2019-03-21T07:38:44.778Z,89.62
2019-03-21T07:41:12.570Z,90.03
2019-03-21T07:43:40.224Z,90.30
2019-03-21T07:46:07.896Z,89.96
2019-03-21T07:48:36.145Z,90.54
2019-03-21T07:51:03.777Z,90.41
2019-03-21T07:53:31.421Z,90.77
2019-03-21T07:55:59.253Z,90.79
2019-03-21T07:58:26.883Z,90.44
2019-03-21T08:00:54.536Z,90.07
2019-03-21T08:03:22.239Z,89.46
2019-03-21T08:05:49.865Z,89.54
2019-03-21T08:08:17.780Z,89.30
2019-03-21T08:10:45.469Z,88.76
2019-03-21T08:13:13.350Z,89.67
2019-03-21T08:15:41.256Z,89.76
2019-03-21T08:18:08.937Z,89.51
2019-03-21T08:20:36.925Z,90.34
2019-03-21T08:23:04.873Z,89.42
2019-03-21T08:25:32.583Z,89.93
2019-03-21T08:28:00.562Z,90.43
2019-03-21T08:30:51.807Z,89.84
2019-03-21T08:33:19.196Z,90.12
2019-03-21T08:35:46.453Z,90.89
2019-03-21T08:38:33.280Z,90.84
2019-03-21T08:41:00.817Z,91.04
2019-03-21T08:43:28.342Z,91.07
2019-03-21T08:45:55.901Z,91.34
2019-03-21T08:48:23.542Z,91.48
2019-03-21T08:50:51.234Z,91.90
2019-03-21T08:53:18.813Z,91.34
2019-03-21T08:55:46.487Z,91.75
2019-03-21T08:58:14.088Z,91.50
2019-03-21T09:00:41.399Z,91.86
2019-03-21T09:03:08.787Z,91.44
2019-03-21T09:05:36.438Z,91.23
2019-03-21T09:08:23.111Z,91.26
2019-03-21T09:10:50.369Z,90.54
2019-03-21T09:13:17.765Z,90.31
2019-03-21T09:15:45.214Z,90.24
2019-03-21T09:18:13.056Z,90.08
2019-03-21T09:20:41.040Z,89.29
2019-03-21T09:23:09.340Z,88.18
2019-03-21T09:25:37.277Z,88.98
2019-03-21T09:28:04.830Z,87.17
2019-03-21T09:30:32.252Z,87.41
2019-03-21T09:33:18.770Z,87.29
2019-03-21T09:35:46.186Z,87.69
2019-03-21T09:38:13.564Z,87.89
2019-03-21T09:40:41.280Z,88.40
2019-03-21T09:43:08.721Z,87.56
2019-03-21T09:45:36.309Z,87.31
2019-03-21T09:48:03.642Z,86.56
2019-03-21T09:50:31.424Z,87.49
2019-03-21T09:52:59.063Z,85.72
2019-03-21T09:55:26.742Z,85.14
2019-03-21T09:57:54.310Z,85.03
2019-03-21T10:00:41.063Z,85.18
2019-03-21T10:03:08.555Z,85.04
2019-03-21T10:05:35.972Z,85.78
2019-03-21T10:08:44.328Z,86.29
2019-03-21T10:11:11.978Z,86.63
2019-03-21T10:13:58.647Z,87.12
2019-03-21T10:16:26.318Z,86.40
2019-03-21T10:18:53.619Z,86.87
2019-03-21T10:21:20.951Z,86.42
2019-03-21T10:23:48.263Z,85.96
2019-03-21T10:26:15.641Z,85.62
2019-03-21T10:28:43.110Z,86.31
2019-03-21T10:31:10.564Z,84.67
2019-03-21T10:33:37.832Z,85.55
2019-03-21T10:36:06.057Z,85.25
2019-03-21T10:38:33.733Z,84.46
2019-03-21T10:41:01.131Z,83.81
2019-03-21T10:43:28.447Z,83.91
2019-03-21T10:45:55.746Z,84.67
2019-03-21T10:48:23.632Z,84.37
2019-03-21T10:50:52.686Z,84.30
2019-03-21T10:53:20.346Z,84.80
2019-03-21T10:55:48.427Z,84.82
2019-03-21T10:58:16.503Z,84.00
2019-03-21T11:00:44.218Z,83.77
2019-03-21T11:03:11.852Z,85.13
2019-03-21T11:05:40.453Z,83.86
2019-03-21T11:08:09.880Z,84.89
2019-03-21T11:10:38.811Z,83.73
2019-03-21T11:13:25.768Z,83.46
2019-03-21T11:15:53.425Z,83.89
2019-03-21T11:18:21.547Z,83.87
2019-03-21T11:20:49.625Z,83.97
2019-03-21T11:23:17.252Z,83.13
2019-03-21T11:25:44.891Z,82.61
2019-03-21T11:28:13.037Z,81.89
2019-03-21T11:30:42.633Z,83.26
2019-03-21T11:33:10.323Z,82.67
2019-03-21T11:35:38.765Z,83.25
2019-03-21T11:38:06.867Z,82.51
2019-03-21T11:40:34.765Z,81.36
2019-03-21T11:43:03.661Z,81.64
2019-03-21T11:45:31.511Z,81.56
2019-03-21T11:47:59.979Z,81.80
2019-03-21T11:50:28.834Z,81.97
2019-03-21T11:52:56.776Z,82.28
2019-03-21T11:55:43.467Z,81.67
2019-03-21T11:58:10.843Z,82.71
2019-03-21T12:03:28.125Z,82.43
2019-03-21T12:05:56.579Z,82.80
2019-03-21T12:08:24.557Z,81.25
2019-03-21T12:10:53.040Z,81.36
2019-03-21T12:13:21.002Z,81.17
2019-03-21T12:15:48.658Z,80.65
2019-03-21T12:18:16.359Z,81.25
2019-03-21T12:20:43.998Z,81.42
2019-03-21T12:23:11.805Z,81.30
2019-03-21T12:25:40.141Z,81.83
2019-03-21T12:28:07.838Z,82.09
2019-03-21T12:30:39.914Z,82.27
2019-03-21T12:33:07.931Z,82.28
2019-03-21T12:35:36.208Z,81.93
2019-03-21T12:38:04.474Z,82.66
2019-03-21T12:40:32.964Z,81.04
2019-03-21T12:43:00.625Z,81.38
2019-03-21T12:45:29.240Z,81.44
2019-03-21T12:47:56.919Z,80.83
2019-03-21T12:50:25.563Z,80.81
2019-03-21T12:52:53.451Z,81.93
2019-03-21T12:55:21.141Z,80.37
2019-03-21T12:57:49.171Z,80.83
2019-03-21T13:00:58.028Z,80.15
2019-03-21T13:03:26.634Z,80.03
2019-03-21T13:05:56.213Z,80.16
2019-03-21T13:08:33.438Z,79.79
2019-03-21T13:10:54.437Z,78.59
2019-03-21T13:13:42.837Z,77.98
2019-03-21T13:16:30.167Z,78.09
2019-03-21T13:18:57.695Z,78.19
2019-03-21T13:21:25.923Z,77.58
2019-03-21T13:23:55.275Z,77.16
2019-03-21T13:26:23.524Z,77.39
2019-03-21T13:28:52.486Z,77.34
2019-03-21T13:31:24.508Z,77.22
2019-03-21T13:33:53.825Z,78.03
2019-03-21T13:36:21.991Z,77.08
2019-03-21T13:38:53.665Z,77.76
2019-03-21T13:41:41.184Z,78.23
2019-03-21T13:44:09.281Z,78.07
2019-03-21T13:46:37.924Z,77.78
2019-03-21T13:49:06.165Z,76.72
2019-03-21T13:51:36.095Z,77.88
2019-03-21T13:54:03.892Z,78.03
2019-03-21T13:56:37.955Z,77.96
2019-03-21T13:59:01.117Z,77.66
2019-03-21T14:01:28.482Z,77.47
2019-03-21T14:03:55.805Z,76.96
2019-03-21T14:06:23.113Z,76.87
2019-03-21T14:08:50.385Z,76.71
2019-03-21T14:11:19.339Z,75.88
2019-03-21T14:13:47.759Z,76.62
2019-03-21T14:16:34.455Z,75.19
2019-03-21T14:19:01.881Z,74.92
2019-03-21T14:21:29.298Z,75.22
2019-03-21T14:23:56.757Z,75.63
2019-03-21T14:26:24.163Z,75.59
2019-03-21T14:28:51.556Z,75.97
2019-03-21T14:31:19.333Z,75.42
2019-03-21T14:33:47.054Z,74.76
2019-03-21T14:36:14.462Z,74.08
2019-03-21T14:38:41.849Z,75.05
2019-03-21T14:41:09.235Z,74.73
2019-03-21T14:43:36.697Z,74.64
2019-03-21T14:46:04.012Z,73.79
2019-03-21T14:48:31.623Z,74.05
2019-03-21T14:50:59.045Z,73.96
2019-03-21T14:53:29.152Z,74.04
2019-03-21T14:55:56.108Z,74.57
2019-03-21T14:58:24.444Z,75.79
2019-03-21T15:00:51.815Z,74.19
2019-03-21T15:03:19.191Z,73.86
2019-03-21T15:08:41.642Z,73.99
2019-03-21T15:11:16.929Z,74.02
2019-03-21T15:16:07.817Z,74.47
2019-03-21T15:18:36.372Z,75.42
2019-03-21T15:21:23.916Z,74.12
2019-03-21T15:23:59.483Z,75.17
2019-03-21T15:26:21.291Z,74.29
2019-03-21T15:28:48.633Z,74.83
2019-03-21T15:31:16.374Z,75.90
2019-03-21T15:33:43.691Z,75.97
2019-03-21T15:36:11.078Z,75.69
2019-03-21T15:38:38.552Z,74.35
2019-03-21T15:41:06.017Z,74.32
2019-03-21T15:43:33.331Z,75.50
2019-03-21T15:46:00.715Z,75.41
2019-03-21T15:48:28.211Z,76.89
2019-03-21T15:51:04.506Z,76.48
2019-03-21T15:53:25.327Z,76.26
2019-03-21T15:55:52.858Z,77.07
2019-03-21T15:58:21.373Z,77.71
2019-03-21T16:00:49.124Z,78.05
2019-03-21T16:03:16.441Z,77.14
2019-03-21T16:05:43.916Z,78.29
2019-03-21T16:08:11.359Z,77.87
2019-03-21T16:10:38.754Z,78.21
2019-03-21T16:13:06.628Z,77.47
2019-03-21T16:15:34.080Z,78.06
2019-03-21T16:18:02.490Z,78.85
2019-03-21T16:20:29.901Z,78.61
2019-03-21T16:22:58.286Z,79.04
2019-03-21T16:25:26.417Z,79.90
2019-03-21T16:27:53.907Z,79.23
2019-03-21T16:30:21.208Z,80.17
2019-03-21T16:32:48.806Z,80.93
2019-03-21T16:35:16.153Z,81.27
2019-03-21T16:37:43.557Z,82.36
2019-03-21T16:40:13.105Z,82.63
2019-03-21T16:42:40.529Z,83.79
2019-03-21T16:45:08.025Z,85.05
2019-03-21T16:47:35.397Z,85.84
2019-03-21T16:50:03.722Z,86.87
2019-03-21T16:52:31.119Z,87.69
2019-03-21T16:54:58.376Z,88.69
2019-03-21T16:57:25.912Z,89.27
2019-03-21T17:00:05.210Z,89.88
2019-03-21T17:02:32.543Z,90.49
2019-03-21T17:04:59.922Z,91.19
2019-03-21T17:07:27.320Z,91.46
2019-03-21T17:09:57.816Z,92.24
2019-03-21T17:12:24.358Z,92.74
2019-03-21T17:14:51.644Z,93.22
2019-03-21T17:17:19.265Z,93.70
2019-03-21T17:19:46.661Z,94.44
2019-03-21T17:22:14.098Z,94.99
2019-03-21T17:24:41.722Z,96.28
2019-03-21T17:27:09.269Z,97.17
2019-03-21T17:29:36.548Z,97.66
2019-03-21T17:32:04.148Z,97.71
2019-03-21T17:34:31.541Z,97.58
2019-03-21T17:36:58.831Z,97.90
2019-03-21T17:39:26.184Z,97.99
2019-03-21T17:41:53.460Z,97.74
2019-03-21T17:44:20.757Z,97.70
2019-03-21T17:46:48.296Z,98.13
2019-03-21T17:49:15.676Z,98.32
2019-03-21T17:51:43.335Z,98.37
2019-03-21T17:54:10.826Z,98.47
2019-03-21T17:56:41.300Z,98.35
2019-03-21T17:59:08.563Z,98.94
2019-03-21T18:01:48.380Z,99.40
2019-03-21T18:04:28.604Z,99.52
2019-03-21T18:06:56.396Z,99.30
2019-03-21T18:09:24.430Z,99.52
2019-03-21T18:11:54.211Z,100.00
2019-03-21T18:14:21.971Z,100.00
2019-03-21T18:16:49.601Z,100.00
2019-03-21T18:19:17.249Z,100.00
2019-03-21T18:21:45.033Z,100.00
2019-03-21T18:24:12.888Z,100.00
2019-03-21T18:26:40.526Z,100.00
2019-03-21T18:29:08.693Z,100.00
2019-03-21T18:31:36.360Z,100.00
2019-03-21T18:34:04.015Z,100.00
2019-03-21T18:36:31.681Z,100.00
2019-03-21T18:39:00.009Z,100.00
2019-03-21T18:41:28.858Z,100.00
2019-03-21T18:43:56.453Z,100.00
2019-03-21T18:46:23.729Z,100.00
2019-03-21T18:48:51.137Z,100.00
2019-03-21T18:51:18.651Z,100.00
2019-03-21T18:53:46.201Z,100.00
2019-03-21T18:56:13.527Z,100.00
2019-03-21T18:58:41.071Z,100.00
2019-03-21T19:01:58.111Z,100.00
2019-03-21T19:04:18.761Z,100.00
2019-03-21T19:06:46.750Z,100.00
2019-03-21T19:09:14.389Z,100.00
2019-03-21T19:11:42.510Z,100.00
2019-03-21T19:14:10.163Z,100.00
2019-03-21T19:16:37.804Z,100.00
2019-03-21T19:19:05.508Z,100.00
2019-03-21T19:21:33.147Z,100.00
2019-03-21T19:24:01.218Z,100.00
2019-03-21T19:26:29.396Z,100.00
2019-03-21T19:28:57.233Z,100.00
2019-03-21T19:31:24.856Z,100.00
2019-03-21T19:33:52.904Z,100.00
2019-03-21T19:36:39.522Z,100.00
2019-03-21T19:39:08.086Z,100.00
2019-03-21T19:41:35.373Z,100.00
2019-03-21T19:44:02.953Z,100.00
2019-03-21T19:46:31.589Z,100.00
2019-03-21T19:48:59.144Z,100.00
2019-03-21T19:51:26.660Z,100.00
2019-03-21T19:53:54.067Z,100.00
2019-03-21T19:56:21.356Z,100.00
2019-03-21T19:58:48.737Z,100.00
2019-03-21T20:01:16.150Z,100.00
2019-03-21T20:03:43.545Z,100.00
2019-03-21T20:06:10.888Z,100.00
2019-03-21T20:08:38.398Z,100.00
2019-03-21T20:11:05.701Z,100.00
2019-03-21T20:13:33.089Z,100.00
2019-03-21T20:16:00.967Z,100.00
2019-03-21T20:18:29.178Z,100.00
2019-03-21T20:20:56.669Z,100.00
2019-03-21T20:23:24.406Z,100.00
2019-03-21T20:25:51.918Z,100.00
2019-03-21T20:28:20.025Z,100.00
2019-03-21T20:30:47.989Z,100.00
2019-03-21T20:33:16.770Z,100.00
2019-03-21T20:35:44.160Z,100.00
2019-03-21T20:38:11.725Z,100.00
2019-03-21T20:40:58.376Z,100.00
2019-03-21T20:43:25.840Z,100.00
2019-03-21T20:45:53.225Z,100.00
2019-03-21T20:48:39.420Z,100.00
2019-03-21T20:51:07.032Z,100.00
2019-03-21T20:53:34.670Z,100.00
2019-03-21T20:56:02.593Z,100.00
2019-03-21T20:58:30.219Z,100.00
2019-03-21T21:00:57.862Z,100.00
2019-03-21T21:03:25.613Z,100.00
2019-03-21T21:05:53.728Z,100.00
2019-03-21T21:08:21.406Z,100.00
2019-03-21T21:10:49.309Z,100.00
2019-03-21T21:13:16.919Z,100.00
2019-03-21T21:15:45.188Z,100.00
2019-03-21T21:18:32.545Z,100.00
2019-03-21T21:21:00.335Z,100.00
2019-03-21T21:23:28.485Z,100.00
2019-03-21T21:26:16.056Z,100.00
2019-03-21T21:28:44.047Z,100.00
2019-03-21T21:31:11.665Z,100.00
2019-03-21T21:33:39.660Z,100.00
2019-03-21T21:36:07.667Z,100.00
2019-03-21T21:38:35.435Z,100.00
2019-03-21T21:41:03.219Z,100.00
2019-03-21T21:43:30.860Z,100.00
2019-03-21T21:45:58.508Z,100.00
2019-03-21T21:48:26.687Z,100.00
2019-03-21T21:50:54.303Z,100.00
2019-03-21T21:53:21.953Z,100.00
2019-03-21T21:55:50.484Z,100.00
2019-03-21T21:58:18.146Z,100.00
2019-03-21T22:00:45.767Z,100.00
2019-03-21T22:03:14.084Z,100.00
2019-03-21T22:05:41.714Z,100.00
2019-03-21T22:08:09.527Z,100.00
2019-03-21T22:10:37.688Z,100.00
2019-03-21T22:13:05.303Z,100.00
2019-03-21T22:15:33.301Z,100.00
2019-03-21T22:18:01.058Z,100.00
2019-03-21T22:20:29.243Z,100.00
2019-03-21T22:22:56.871Z,100.00
2019-03-21T22:25:25.305Z,100.00
2019-03-21T22:27:53.783Z,100.00
2019-03-21T22:30:21.766Z,100.00
2019-03-21T22:32:50.147Z,100.00
2019-03-21T22:35:17.772Z,100.00
2019-03-21T22:37:45.752Z,100.00
2019-03-21T22:40:13.817Z,100.00
2019-03-21T22:42:41.475Z,100.00
2019-03-21T22:45:09.837Z,100.00
2019-03-21T22:47:37.503Z,100.00
2019-03-21T22:50:07.353Z,100.00
2019-03-21T22:52:35.311Z,100.00
2019-03-21T22:55:24.448Z,100.00
2019-03-21T22:57:52.191Z,100.00
2019-03-21T23:03:08.994Z,100.00
2019-03-21T23:05:36.382Z,100.00
2019-03-21T23:08:03.762Z,100.00
2019-03-21T23:10:31.181Z,100.00
2019-03-21T23:13:10.492Z,100.00
2019-03-21T23:15:37.839Z,100.00
2019-03-21T23:18:05.116Z,100.00
2019-03-21T23:20:32.390Z,100.00
2019-03-21T23:22:59.989Z,100.00
2019-03-21T23:25:27.262Z,100.00
2019-03-21T23:27:54.802Z,100.00
2019-03-21T23:30:22.198Z,100.00
2019-03-21T23:32:49.468Z,100.00
2019-03-21T23:35:16.751Z,100.00
2019-03-21T23:37:44.242Z,100.00
2019-03-21T23:40:11.833Z,100.00
2019-03-21T23:42:39.108Z,100.00
2019-03-21T23:45:06.773Z,100.00
2019-03-21T23:47:34.181Z,100.00
2019-03-21T23:50:01.571Z,100.00
2019-03-21T23:52:28.883Z,100.00
2019-03-21T23:54:56.263Z,100.00
2019-03-21T23:57:23.632Z,100.00
2019-03-21T23:59:51.042Z,100.00
